createdAt,value
2023-04-19T00:00:10.375Z,5.88
2023-04-19T00:05:32.570Z,5.20
2023-04-19T00:10:54.416Z,7.47
2023-04-19T00:16:16.886Z,6.20
2023-04-19T00:21:38.784Z,5.57
2023-04-19T00:27:00.586Z,5.22
2023-04-19T00:32:22.464Z,6.35
2023-04-19T00:37:44.314Z,5.88
2023-04-19T00:43:06.133Z,5.25
2023-04-19T00:48:29.292Z,5.95
2023-04-19T00:53:52.474Z,8.13
2023-04-19T00:59:15.344Z,6.57
2023-04-19T01:04:37.410Z,6.22
2023-04-19T01:09:59.345Z,6.25
2023-04-19T01:15:21.188Z,5.68
2023-04-19T01:20:43.049Z,6.97
2023-04-19T01:26:05.952Z,7.07
2023-04-19T01:31:27.829Z,7.32
2023-04-19T01:36:49.875Z,9.02
2023-04-19T01:42:11.759Z,6.22
2023-04-19T01:47:33.704Z,8.20
2023-04-19T01:52:55.571Z,6.78
2023-04-19T01:58:17.384Z,7.85
2023-04-19T02:03:40.269Z,7.53
2023-04-19T02:09:02.379Z,9.43
2023-04-19T02:14:24.233Z,8.23
2023-04-19T02:19:46.032Z,11.35
2023-04-19T02:25:08.242Z,12.20
2023-04-19T02:30:30.156Z,8.40
2023-04-19T02:35:51.971Z,10.02
2023-04-19T02:41:13.830Z,9.60
2023-04-19T02:46:35.697Z,8.05
2023-04-19T02:51:57.539Z,9.35
2023-04-19T02:57:19.331Z,7.93
2023-04-19T03:02:42.453Z,11.18
2023-04-19T03:08:04.622Z,8.23
2023-04-19T03:13:26.435Z,8.93
2023-04-19T03:18:49.480Z,9.73
2023-04-19T03:24:11.542Z,10.00
2023-04-19T03:29:33.372Z,12.00
2023-04-19T03:34:55.366Z,11.55
2023-04-19T03:40:17.218Z,8.93
2023-04-19T03:45:39.252Z,9.02
2023-04-19T03:51:01.087Z,12.88
2023-04-19T03:56:22.891Z,10.20
2023-04-19T04:01:44.710Z,9.18
2023-04-19T04:07:06.568Z,10.55
2023-04-19T04:12:28.383Z,8.10
2023-04-19T04:17:50.535Z,7.78
2023-04-19T04:23:12.402Z,9.65
2023-04-19T04:28:34.224Z,7.82
2023-04-19T04:33:56.016Z,6.97
2023-04-19T04:39:17.818Z,8.88
2023-04-19T04:44:40.235Z,7.68
2023-04-19T04:50:02.767Z,7.65
2023-04-19T04:55:24.586Z,8.38
2023-04-19T05:00:46.603Z,8.25
2023-04-19T05:06:08.404Z,7.13
2023-04-19T05:11:30.239Z,8.23
2023-04-19T05:16:52.085Z,8.85
2023-04-19T05:22:14.004Z,9.40
2023-04-19T05:27:35.821Z,8.88
2023-04-19T05:32:57.657Z,13.15
2023-04-19T05:38:19.869Z,9.75
2023-04-19T05:43:41.701Z,9.13
2023-04-19T05:49:03.560Z,8.35
2023-04-19T05:54:25.435Z,10.32
2023-04-19T05:59:47.359Z,9.27
2023-04-19T06:05:11.071Z,11.20
2023-04-19T06:10:44.377Z,12.15
2023-04-19T06:16:13.551Z,10.07
2023-04-19T06:21:35.402Z,11.25
2023-04-19T06:26:57.390Z,13.70
2023-04-19T06:32:19.286Z,11.23
2023-04-19T06:37:41.229Z,11.85
2023-04-19T06:43:03.176Z,12.35
2023-04-19T06:48:27.766Z,9.30
2023-04-19T06:53:50.325Z,9.60
2023-04-19T06:59:17.277Z,12.65
2023-04-19T07:04:39.331Z,11.73
2023-04-19T07:10:01.268Z,9.88
2023-04-19T07:15:23.221Z,10.55
2023-04-19T07:20:45.016Z,11.00
2023-04-19T07:26:07.559Z,12.73
2023-04-19T07:31:29.371Z,10.05
2023-04-19T07:36:51.336Z,9.77
2023-04-19T07:42:13.443Z,10.77
2023-04-19T07:47:35.281Z,11.20
2023-04-19T07:52:57.102Z,13.32
2023-04-19T07:58:18.967Z,8.15
2023-04-19T08:03:40.919Z,10.10
2023-04-19T08:09:02.896Z,8.98
2023-04-19T08:14:37.765Z,9.70
2023-04-19T08:20:06.486Z,8.88
2023-04-19T08:25:28.293Z,9.52
2023-04-19T08:30:50.144Z,8.00
2023-04-19T08:36:12.667Z,8.18
2023-04-19T08:41:35.812Z,7.15
2023-04-19T08:46:59.322Z,6.95
2023-04-19T08:52:22.541Z,8.05
2023-04-19T08:57:44.512Z,9.43
2023-04-19T09:03:08.064Z,8.30
2023-04-19T09:08:31.386Z,7.43
2023-04-19T09:14:08.294Z,7.05
2023-04-19T09:19:45.724Z,7.82
2023-04-19T09:30:37.858Z,7.25
2023-04-19T09:36:06.702Z,7.10
2023-04-19T09:41:28.624Z,8.13
2023-04-19T09:46:52.991Z,8.07
2023-04-19T09:52:15.305Z,7.70
2023-04-19T09:57:37.135Z,8.10
2023-04-19T10:02:59.142Z,8.77
2023-04-19T10:08:21.097Z,9.90
2023-04-19T10:13:45.146Z,9.60
2023-04-19T10:19:10.798Z,14.23
2023-04-19T10:24:33.778Z,9.63
2023-04-19T10:29:55.582Z,9.05
2023-04-19T10:35:26.190Z,7.90
2023-04-19T10:41:01.208Z,7.55
2023-04-19T10:46:23.211Z,8.45
2023-04-19T10:51:51.069Z,9.15
2023-04-19T10:57:12.940Z,8.10
2023-04-19T11:02:34.945Z,7.28
2023-04-19T11:07:56.805Z,5.93
2023-04-19T11:13:18.739Z,8.02
2023-04-19T11:18:40.548Z,7.35
2023-04-19T11:24:12.204Z,6.97
2023-04-19T11:29:34.031Z,8.88
2023-04-19T11:34:56.554Z,8.27
2023-04-19T11:40:20.456Z,6.40
2023-04-19T11:45:42.813Z,7.93
2023-04-19T11:51:05.317Z,6.82
2023-04-19T11:56:27.197Z,6.50
2023-04-19T12:01:49.027Z,6.90
2023-04-19T12:07:12.164Z,7.55
2023-04-19T12:12:34.070Z,8.38
2023-04-19T12:18:02.777Z,6.18
2023-04-19T12:23:24.655Z,5.18
2023-04-19T12:28:46.445Z,5.63
2023-04-19T12:34:08.269Z,7.63
2023-04-19T12:39:30.656Z,5.90
2023-04-19T12:44:52.470Z,5.10
2023-04-19T12:50:15.580Z,4.53
2023-04-19T12:55:37.424Z,5.13
2023-04-19T13:00:59.271Z,5.93
2023-04-19T13:06:21.227Z,7.97
2023-04-19T13:11:43.079Z,5.03
2023-04-19T13:17:04.940Z,5.03
2023-04-19T13:22:26.849Z,5.93
2023-04-19T13:27:48.660Z,6.22
2023-04-19T13:33:10.783Z,5.00
2023-04-19T13:38:32.736Z,7.38
2023-04-19T13:43:54.547Z,5.25
2023-04-19T13:49:16.350Z,6.22
2023-04-19T13:54:38.199Z,5.68
2023-04-19T14:00:00.015Z,6.20
2023-04-19T14:05:21.943Z,7.43
2023-04-19T14:10:43.876Z,7.15
2023-04-19T14:16:06.033Z,9.23
2023-04-19T14:21:27.943Z,9.05
2023-04-19T14:27:03.158Z,8.38
2023-04-19T14:32:31.405Z,7.97
2023-04-19T14:37:53.329Z,7.50
2023-04-19T14:43:15.496Z,7.85
2023-04-19T14:48:37.323Z,6.00
2023-04-19T14:53:59.409Z,7.40
2023-04-19T14:59:21.363Z,7.18
2023-04-19T15:04:43.418Z,8.23
2023-04-19T15:10:06.088Z,9.52
2023-04-19T15:15:28.058Z,6.03
2023-04-19T15:20:50.257Z,5.55
2023-04-19T15:26:12.107Z,4.88
2023-04-19T15:31:34.021Z,7.20
2023-04-19T15:36:55.873Z,4.95
2023-04-19T15:42:17.731Z,9.95
2023-04-19T15:47:39.632Z,4.10
2023-04-19T15:53:01.843Z,8.05
2023-04-19T15:58:23.865Z,6.85
2023-04-19T16:03:45.938Z,5.45
2023-04-19T16:09:07.897Z,6.57
2023-04-19T16:14:29.741Z,7.57
2023-04-19T16:19:51.629Z,7.15
2023-04-19T16:25:14.501Z,6.82
2023-04-19T16:30:36.321Z,8.50
2023-04-19T16:35:58.171Z,11.18
2023-04-19T16:41:20.016Z,12.50
2023-04-19T16:46:42.784Z,15.38
2023-04-19T16:52:04.689Z,15.13
2023-04-19T16:57:26.684Z,17.17
2023-04-19T17:02:48.583Z,15.27
2023-04-19T17:08:10.602Z,21.05
2023-04-19T17:13:32.587Z,16.85
2023-04-19T17:18:55.630Z,15.07
2023-04-19T17:24:17.464Z,18.08
2023-04-19T17:29:39.346Z,18.48
2023-04-19T17:35:01.220Z,18.40
2023-04-19T17:40:23.050Z,17.73
2023-04-19T17:45:44.875Z,22.52
2023-04-19T17:51:07.511Z,19.45
2023-04-19T17:56:29.393Z,19.48
2023-04-19T18:01:51.215Z,20.08
2023-04-19T18:07:13.406Z,21.05
2023-04-19T18:12:35.462Z,22.10
2023-04-19T18:17:57.342Z,20.20
2023-04-19T18:23:19.220Z,18.85
2023-04-19T18:28:41.031Z,23.13
2023-04-19T18:34:02.842Z,19.60
2023-04-19T18:39:24.704Z,18.65
2023-04-19T18:44:53.607Z,16.52
2023-04-19T18:50:19.150Z,18.17
2023-04-19T18:55:41.312Z,15.90
2023-04-19T19:01:03.304Z,18.30
2023-04-19T19:06:25.310Z,16.95
2023-04-19T19:11:55.959Z,12.48
2023-04-19T19:17:19.008Z,12.52
2023-04-19T19:22:40.867Z,15.80
2023-04-19T19:28:08.281Z,12.30
2023-04-19T19:33:32.780Z,10.88
2023-04-19T19:38:54.766Z,15.80
2023-04-19T19:44:16.655Z,7.85
2023-04-19T19:55:03.582Z,12.52
2023-04-19T20:00:42.887Z,11.32
2023-04-19T20:11:31.869Z,7.20
2023-04-19T20:16:54.358Z,11.40
2023-04-19T20:22:16.264Z,9.10
2023-04-19T20:27:38.135Z,11.93
2023-04-19T20:33:00.013Z,12.55
2023-04-19T20:38:21.877Z,12.55
2023-04-19T20:43:43.754Z,15.52
2023-04-19T20:49:05.635Z,15.18
2023-04-19T20:54:27.499Z,17.95
2023-04-19T20:59:50.231Z,17.88
2023-04-19T21:05:12.047Z,19.45
2023-04-19T21:10:33.967Z,16.60
2023-04-19T21:15:55.904Z,17.95
2023-04-19T21:21:17.744Z,17.88
2023-04-19T21:26:39.626Z,18.05
2023-04-19T21:32:01.610Z,19.95
2023-04-19T21:37:23.611Z,21.65
2023-04-19T21:42:45.434Z,25.52
2023-04-19T21:48:07.256Z,20.55
2023-04-19T21:53:29.168Z,20.33
2023-04-19T21:58:51.017Z,22.10
2023-04-19T22:04:12.858Z,22.02
2023-04-19T22:09:34.726Z,22.88
2023-04-19T22:14:56.567Z,21.92
2023-04-19T22:20:18.570Z,23.63
2023-04-19T22:25:40.503Z,20.33
2023-04-19T22:31:02.373Z,19.95
2023-04-19T22:36:24.242Z,16.25
2023-04-19T22:41:46.105Z,22.23
2023-04-19T22:47:07.937Z,16.90
2023-04-19T22:52:29.859Z,15.25
2023-04-19T22:57:51.719Z,16.83
2023-04-19T23:03:13.721Z,16.98
2023-04-19T23:08:35.601Z,15.35
2023-04-19T23:13:57.441Z,19.92
2023-04-19T23:19:19.433Z,16.75
2023-04-19T23:24:41.451Z,19.55
2023-04-19T23:30:04.964Z,26.20
2023-04-19T23:35:26.978Z,34.40
2023-04-19T23:40:48.883Z,43.40
2023-04-19T23:46:10.712Z,22.95
2023-04-19T23:51:32.560Z,37.58
2023-04-19T23:56:55.195Z,22.00
